Weather History for PAEM - October, 2013

Change the Weather History Date:

Friday, October 18, 2013

  Actual Average Record
Temperature  
Mean Temperature 36 °F -  
Max Temperature 42 °F 30 °F 48 °F (2004)
Min Temperature 30 °F 23 °F 8 °F (1996)
Degree Days  
Heating Degree Days 29    
Moisture  
Dew Point 33 °F    
Average Humidity 84    
Maximum Humidity 87    
Minimum Humidity 76    
Precipitation  
Precipitation 0.16 in - - ()
Sea Level Pressure  
Sea Level Pressure 29.22 in    
Wind  
Wind Speed 8 mph (ENE)    
Max Wind Speed 18 mph    
Max Gust Speed 22 mph    
Visibility 10 miles    
Events      
Averages and records for this station are not official NWS values.
T = Trace of Precipitation, MM = Missing Value Source: NWS Daily Summary

Daily Weather History Graph

Daily Weather History Graph

Search for Another Location

Airport or City:

Trip Planner

Search our weather history database for the weather conditions in past years. The results will help you decide how hot, cold, wet, or windy it might be!

Date:

Astronomy

Oct. 18, 2013 Rise Set
Actual Time 9:54 AM AKDT 7:30 PM AKDT
Civil Twilight 9:07 AM AKDT 8:17 PM AKDT
Nautical Twilight 8:14 AM AKDT 9:09 PM AKDT
Astronomical Twilight 7:21 AM AKDT 10:02 PM AKDT
Moon 7:16 PM AKDT (10/18) 9:48 AM AKDT (10/18)
Length of Visible Light 11h 10m
Length of Day
9h 36m
Full, 100% of the Moon is Illuminated
Oct 18
Full
Oct 18
Full
Oct 26
Last Quarter
Nov 3
New
Nov 9
First Quarter

Hourly Weather History & Observations

Time (AKDT) Temp. Windchill Dew Point Humidity Pressure Visibility Wind Dir Wind Speed Gust Speed Precip Events Conditions
12:16 AM 32.0 °F 27.5 °F 28.4 °F 87% 29.48 in 10.0 mi ENE 4.6 mph - N/A   Mostly Cloudy
12:36 AM 30.2 °F 25.4 °F 26.6 °F 86% 29.48 in 10.0 mi ENE 4.6 mph - N/A   Mostly Cloudy
12:56 AM 32.0 °F 26.4 °F 28.4 °F 87% 29.48 in 10.0 mi ENE 5.8 mph - N/A   Overcast
1:16 AM 33.8 °F 29.6 °F 28.4 °F 81% 29.47 in 10.0 mi East 4.6 mph - N/A   Mostly Cloudy
1:36 AM 32.0 °F 26.4 °F 28.4 °F 87% 29.46 in 10.0 mi ENE 5.8 mph - N/A   Scattered Clouds
1:56 AM 32.0 °F 25.6 °F 28.4 °F 87% 29.45 in 10.0 mi NE 6.9 mph - N/A   Partly Cloudy
2:16 AM 32.0 °F 25.6 °F 28.4 °F 87% 29.44 in 10.0 mi NE 6.9 mph - N/A   Clear
2:36 AM 32.0 °F 26.4 °F 28.4 °F 87% 29.44 in 10.0 mi ENE 5.8 mph - N/A   Clear
2:56 AM 32.0 °F 25.6 °F 28.4 °F 87% 29.43 in 10.0 mi NE 6.9 mph - N/A   Clear
3:16 AM 32.0 °F 26.4 °F 28.4 °F 87% 29.43 in 10.0 mi ENE 5.8 mph - N/A   Clear
3:36 AM 32.0 °F 26.4 °F 28.4 °F 87% 29.42 in 10.0 mi NE 5.8 mph - N/A   Clear
3:56 AM 32.0 °F 26.4 °F 28.4 °F 87% 29.41 in 10.0 mi NE 5.8 mph - N/A   Clear
4:16 AM 32.0 °F 25.6 °F 28.4 °F 87% 29.40 in 10.0 mi NE 6.9 mph - N/A   Scattered Clouds
4:36 AM 32.0 °F 26.4 °F 28.4 °F 87% 29.39 in 10.0 mi ENE 5.8 mph - N/A   Overcast
4:56 AM 32.0 °F 26.4 °F 28.4 °F 87% 29.38 in 10.0 mi NE 5.8 mph - N/A   Overcast
5:16 AM 33.8 °F 29.6 °F 28.4 °F 81% 29.37 in 10.0 mi NE 4.6 mph - N/A   Overcast
5:36 AM 33.8 °F 27.7 °F 28.4 °F 81% 29.36 in 10.0 mi NE 6.9 mph - N/A   Overcast
5:56 AM 33.8 °F 27.0 °F 30.2 °F 87% 29.36 in 10.0 mi ENE 8.1 mph - N/A   Overcast
6:16 AM 33.8 °F 27.0 °F 30.2 °F 87% 29.35 in 10.0 mi NE 8.1 mph - N/A   Overcast
6:36 AM 33.8 °F 25.8 °F 30.2 °F 87% 29.33 in 10.0 mi NE 10.4 mph - N/A   Overcast
6:56 AM 33.8 °F 27.0 °F 30.2 °F 87% 29.32 in 10.0 mi ENE 8.1 mph - N/A   Overcast
7:16 AM 35.6 °F 29.2 °F 30.2 °F 81% 29.32 in 10.0 mi East 8.1 mph - N/A   Overcast
7:36 AM 35.6 °F 28.0 °F 30.2 °F 81% 29.32 in 10.0 mi ENE 10.4 mph - N/A   Overcast
7:56 AM 35.6 °F 28.0 °F 30.2 °F 81% 29.31 in 10.0 mi ENE 10.4 mph - N/A   Overcast
8:16 AM 35.6 °F 28.0 °F 30.2 °F 81% 29.30 in 10.0 mi ENE 10.4 mph - N/A   Overcast
8:36 AM 35.6 °F 27.5 °F 30.2 °F 81% 29.30 in 10.0 mi ENE 11.5 mph - N/A   Mostly Cloudy
8:56 AM 35.6 °F 28.0 °F 30.2 °F 81% 29.29 in 10.0 mi NE 10.4 mph - N/A   Overcast
9:16 AM 35.6 °F 28.0 °F 30.2 °F 81% 29.28 in 10.0 mi ENE 10.4 mph - N/A   Mostly Cloudy
9:36 AM 35.6 °F 28.6 °F 30.2 °F 81% 29.28 in 10.0 mi ENE 9.2 mph - N/A   Overcast
9:56 AM 35.6 °F 29.2 °F 32.0 °F 87% 29.27 in 10.0 mi NE 8.1 mph - N/A   Overcast
10:16 AM 37.4 °F 30.8 °F 32.0 °F 81% 29.27 in 10.0 mi ENE 9.2 mph - N/A   Overcast
10:36 AM 37.4 °F 30.8 °F 33.8 °F 87% 29.26 in 10.0 mi NE 9.2 mph - N/A   Overcast
10:56 AM 37.4 °F 29.8 °F 33.8 °F 87% 29.25 in 10.0 mi NE 11.5 mph - N/A   Overcast
11:16 AM 37.4 °F 30.3 °F 33.8 °F 87% 29.24 in 10.0 mi NE 10.4 mph - N/A   Overcast
11:36 AM 37.4 °F 31.4 °F 33.8 °F 87% 29.24 in 10.0 mi ENE 8.1 mph - N/A   Overcast
11:56 AM 37.4 °F 30.3 °F 33.8 °F 87% 29.24 in 10.0 mi ENE 10.4 mph - N/A   Overcast
12:16 PM 37.4 °F 30.3 °F 33.8 °F 87% 29.23 in 10.0 mi ENE 10.4 mph - N/A   Overcast
12:36 PM 37.4 °F 30.8 °F 33.8 °F 87% 29.22 in 10.0 mi ENE 9.2 mph - N/A   Overcast
12:56 PM 37.4 °F 30.8 °F 33.8 °F 87% 29.21 in 10.0 mi ENE 9.2 mph 16.1 mph N/A   Overcast
1:16 PM 37.4 °F 30.3 °F 33.8 °F 87% 29.21 in 10.0 mi ENE 10.4 mph - N/A   Overcast
1:36 PM 39.2 °F 32.0 °F 33.8 °F 81% 29.20 in 10.0 mi East 11.5 mph - N/A   Overcast
1:56 PM 39.2 °F 32.0 °F 35.6 °F 87% 29.19 in 10.0 mi ENE 11.5 mph - N/A   Overcast
2:16 PM 39.2 °F 32.0 °F 35.6 °F 87% 29.18 in 10.0 mi East 11.5 mph - N/A   Overcast
2:36 PM 39.2 °F 32.0 °F 35.6 °F 87% 29.17 in 10.0 mi ENE 11.5 mph - N/A   Mostly Cloudy
2:56 PM 41.0 °F 34.3 °F 35.6 °F 81% 29.15 in 10.0 mi ENE 11.5 mph - N/A   Overcast
3:16 PM 41.0 °F 33.9 °F 35.6 °F 81% 29.14 in 10.0 mi ENE 12.7 mph 17.3 mph N/A   Overcast
3:36 PM 41.0 °F 33.9 °F 35.6 °F 81% 29.12 in 10.0 mi NE 12.7 mph - N/A   Overcast
3:56 PM 42.8 °F 36.2 °F 35.6 °F 76% 29.11 in 10.0 mi NE 12.7 mph 18.4 mph N/A   Mostly Cloudy
4:16 PM 42.8 °F 36.2 °F 35.6 °F 76% 29.10 in 10.0 mi NE 12.7 mph - 0.01 in   Overcast
4:36 PM 41.0 °F 33.5 °F 35.6 °F 81% 29.09 in 10.0 mi ENE 13.8 mph 19.6 mph 0.02 in   Overcast
4:56 PM 41.0 °F 32.2 °F 35.6 °F 81% 29.08 in 8.0 mi ENE 18.4 mph 21.9 mph 0.05 in   Overcast
5:16 PM 41.0 °F 33.1 °F 35.6 °F 81% 29.07 in 9.0 mi ENE 15.0 mph 20.7 mph 0.05 in   Overcast
5:36 PM 41.0 °F 33.9 °F 35.6 °F 81% 29.05 in 10.0 mi ENE 12.7 mph - 0.07 in   Overcast
5:56 PM 41.0 °F 33.5 °F 35.6 °F 81% 29.04 in 10.0 mi ENE 13.8 mph - 0.07 in   Overcast
6:16 PM 41.0 °F 33.1 °F 35.6 °F 81% 29.04 in 9.0 mi ENE 15.0 mph - 0.03 in   Overcast
6:36 PM 41.0 °F 33.5 °F 37.4 °F 87% 29.02 in 10.0 mi ENE 13.8 mph 20.7 mph 0.04 in   Overcast
6:56 PM 41.0 °F 34.7 °F 35.6 °F 81% 29.02 in 10.0 mi East 10.4 mph - 0.04 in   Overcast
7:16 PM 42.8 °F 35.4 °F 37.4 °F 81% 29.01 in 10.0 mi East 15.0 mph 19.6 mph N/A   Overcast
7:36 PM 42.8 °F 35.8 °F 37.4 °F 81% 29.02 in 10.0 mi ESE 13.8 mph - N/A   Overcast
7:56 PM 42.8 °F 36.6 °F 37.4 °F 81% 29.02 in 10.0 mi ESE 11.5 mph - N/A   Overcast
8:16 PM 41.0 °F 34.3 °F 37.4 °F 87% 29.03 in 10.0 mi ESE 11.5 mph - N/A   Overcast
8:36 PM 42.8 °F 37.5 °F 37.4 °F 81% 29.03 in 10.0 mi ESE 9.2 mph - N/A   Overcast
8:56 PM 42.8 °F 36.6 °F 37.4 °F 81% 29.04 in 10.0 mi ESE 11.5 mph - N/A   Overcast
9:16 PM 42.8 °F 36.6 °F 35.6 °F 76% 29.04 in 10.0 mi ESE 11.5 mph - N/A   Overcast
9:36 PM 41.0 °F 34.7 °F 35.6 °F 81% 29.04 in 10.0 mi ESE 10.4 mph - N/A   Overcast
9:56 PM 41.0 °F 34.7 °F 35.6 °F 81% 29.05 in 10.0 mi ESE 10.4 mph - N/A   Overcast
10:16 PM 41.0 °F 34.3 °F 35.6 °F 81% 29.04 in 10.0 mi ESE 11.5 mph - N/A   Mostly Cloudy
10:36 PM 39.2 °F 32.5 °F 35.6 °F 87% 29.05 in 10.0 mi ESE 10.4 mph - N/A   Scattered Clouds
10:56 PM 39.2 °F 33.6 °F 35.6 °F 87% 29.05 in 10.0 mi ESE 8.1 mph - N/A   Mostly Cloudy
11:16 PM 39.2 °F 33.0 °F 35.6 °F 87% 29.05 in 10.0 mi ESE 9.2 mph - N/A   Overcast
11:36 PM 39.2 °F 33.0 °F 35.6 °F 87% 29.06 in 10.0 mi ESE 9.2 mph - N/A   Overcast
11:56 PM 39.2 °F 33.0 °F 35.6 °F 87% 29.06 in 10.0 mi ESE 9.2 mph - N/A   Overcast